Time;durP1;ratioP1;P1;durP2;ratioP2;P2;SDS_P1;SDS_P2;PMS_P1;PMS_P2;Temp;Humidity;BMP_temperature;BMP_pressure;BME280_temperature;BME280_humidity;BME280_pressure;Samples;Min_cycle;Max_cycle;Signal;HPM_P1;HPM_P2
2023/09/09 00:00:46;;;;;;;6.53;5.72;;;19.10;99.90;;;;;;5025869;28;20501;-65
2023/09/09 00:03:13;;;;;;;8.18;5.97;;;19.10;99.90;;;;;;5051241;28;20219;-65
2023/09/09 00:05:40;;;;;;;7.88;6.10;;;19.00;99.90;;;;;;5017471;28;20224;-65
2023/09/09 00:08:07;;;;;;;7.63;5.40;;;19.00;99.90;;;;;;5040890;28;20220;-65
2023/09/09 00:10:36;;;;;;;7.70;5.50;;;19.00;99.90;;;;;;5043702;28;20216;-65
2023/09/09 00:13:03;;;;;;;7.28;5.75;;;19.10;99.90;;;;;;5053985;28;20220;-64
2023/09/09 00:15:31;;;;;;;6.60;5.35;;;18.90;99.90;;;;;;5031626;28;24138;-64
2023/09/09 00:17:58;;;;;;;9.13;5.63;;;19.00;99.90;;;;;;5049798;28;20216;-64
2023/09/09 00:20:30;;;;;;;9.77;6.05;;;19.00;99.90;;;;;;5014171;28;20223;-65
2023/09/09 00:22:58;;;;;;;7.68;6.03;;;19.00;99.90;;;;;;5043041;28;20242;-64
2023/09/09 00:25:25;;;;;;;8.98;5.68;;;18.90;99.90;;;;;;5040254;28;20239;-65
2023/09/09 00:27:52;;;;;;;7.30;5.40;;;18.80;99.90;;;;;;5047421;28;20224;-65
2023/09/09 00:30:19;;;;;;;6.20;5.40;;;;;;;;;;5038176;28;20229;-64
2023/09/09 00:32:47;;;;;;;7.60;6.07;;;18.90;99.90;;;;;;5048905;28;20215;-64
2023/09/09 00:35:14;;;;;;;12.60;5.70;;;18.80;99.90;;;;;;5024446;28;21046;-64
2023/09/09 00:37:41;;;;;;;10.20;5.43;;;18.80;99.90;;;;;;5035044;28;20720;-65
2023/09/09 00:40:08;;;;;;;8.38;5.65;;;18.70;99.90;;;;;;5037095;28;20978;-64
2023/09/09 00:42:35;;;;;;;6.70;6.03;;;18.70;99.90;;;;;;5045362;28;20230;-64
2023/09/09 00:45:02;;;;;;;7.22;5.72;;;18.70;99.90;;;;;;5043168;28;20224;-64
2023/09/09 00:47:29;;;;;;;7.82;6.03;;;18.80;99.90;;;;;;5045366;28;20220;-64
2023/09/09 00:49:59;;;;;;;9.45;6.10;;;18.60;99.90;;;;;;5027618;28;20236;-64
2023/09/09 00:52:26;;;;;;;6.32;5.72;;;18.60;99.90;;;;;;5043665;28;20231;-64
2023/09/09 00:54:54;;;;;;;9.75;6.15;;;18.60;99.90;;;;;;5029741;28;20279;-65
2023/09/09 00:57:20;;;;;;;9.13;6.07;;;18.70;99.90;;;;;;5041707;28;20228;-65
2023/09/09 00:59:48;;;;;;;6.53;5.72;;;18.60;99.90;;;;;;5029678;28;20220;-65
2023/09/09 01:02:15;;;;;;;6.65;5.60;;;18.60;99.90;;;;;;5046966;28;20221;-65
2023/09/09 01:04:42;;;;;;;13.55;5.43;;;18.60;99.90;;;;;;5048373;28;20229;-65
2023/09/09 01:07:10;;;;;;;8.70;5.95;;;18.50;99.90;;;;;;5018610;28;20216;-65
2023/09/09 01:09:37;;;;;;;7.00;5.43;;;18.50;99.90;;;;;;5050969;28;20189;-64
2023/09/09 01:12:07;;;;;;;11.98;5.88;;;17.80;99.90;;;;;;5034900;28;20200;-64
2023/09/09 01:14:34;;;;;;;7.32;5.60;;;18.40;99.90;;;;;;5047422;28;20254;-65
2023/09/09 01:17:02;;;;;;;8.75;6.65;;;18.40;99.90;;;;;;5031515;28;20794;-65
2023/09/09 01:19:31;;;;;;;7.82;5.85;;;18.40;99.90;;;;;;5053095;28;20681;-65
2023/09/09 01:22:03;;;;;;;7.40;5.80;;;18.40;99.90;;;;;;5023042;28;20227;-65
2023/09/09 01:24:32;;;;;;;6.85;5.82;;;18.40;99.90;;;;;;5044753;28;20277;-65
2023/09/09 01:26:59;;;;;;;8.88;5.28;;;18.40;99.90;;;;;;5042487;28;20204;-65
2023/09/09 01:29:25;;;;;;;7.75;5.38;;;18.30;99.90;;;;;;5045458;28;20215;-64
2023/09/09 01:31:52;;;;;;;9.18;5.70;;;18.30;99.90;;;;;;5040000;28;20585;-64
2023/09/09 01:34:19;;;;;;;7.80;5.80;;;18.30;99.90;;;;;;5040781;28;20209;-65
2023/09/09 01:36:47;;;;;;;9.40;6.00;;;18.30;99.90;;;;;;5044633;28;20197;-65
2023/09/09 01:39:14;;;;;;;11.80;6.57;;;18.30;99.90;;;;;;5030015;28;20314;-65
2023/09/09 01:41:42;;;;;;;9.63;5.88;;;18.30;99.90;;;;;;5045114;28;20220;-65
2023/09/09 01:44:09;;;;;;;9.65;6.22;;;18.20;99.90;;;;;;5044587;28;20291;-65
2023/09/09 01:46:36;;;;;;;8.90;6.57;;;18.20;99.90;;;;;;5034189;28;20216;-64
2023/09/09 01:49:03;;;;;;;8.07;5.95;;;18.10;99.90;;;;;;5056312;28;20317;-64
2023/09/09 01:51:32;;;;;;;6.43;5.78;;;18.10;99.90;;;;;;5054174;28;20231;-65
2023/09/09 01:53:59;;;;;;;13.60;5.90;;;;;;;;;;5020339;28;20232;-65
2023/09/09 01:56:25;;;;;;;11.23;6.32;;;18.00;99.90;;;;;;5041060;28;20796;-65
2023/09/09 01:58:54;;;;;;;10.68;6.28;;;18.10;99.90;;;;;;5046543;28;20862;-65
2023/09/09 02:01:20;;;;;;;7.88;6.15;;;18.00;99.90;;;;;;5017613;28;20208;-64
2023/09/09 02:03:47;;;;;;;8.05;6.20;;;17.90;99.90;;;;;;5039900;28;20201;-65
2023/09/09 02:06:14;;;;;;;7.47;6.70;;;;;;;;;;5039950;28;20224;-65
2023/09/09 02:08:41;;;;;;;7.43;6.30;;;17.90;99.90;;;;;;5021226;28;20228;-65
2023/09/09 02:11:09;;;;;;;7.95;6.18;;;17.90;99.90;;;;;;5047224;28;20239;-64
2023/09/09 02:13:36;;;;;;;7.30;5.97;;;17.90;99.90;;;;;;5042417;28;20204;-65
2023/09/09 02:16:08;;;;;;;7.28;6.57;;;17.90;99.90;;;;;;5033612;28;21112;-65
2023/09/09 02:18:37;;;;;;;9.63;6.65;;;17.80;99.90;;;;;;5042767;28;21018;-64
2023/09/09 02:21:05;;;;;;;11.07;6.38;;;17.80;99.90;;;;;;5050090;28;20201;-64
2023/09/09 02:23:32;;;;;;;11.98;6.90;;;17.70;99.90;;;;;;5018925;28;22288;-64
2023/09/09 02:25:58;;;;;;;7.55;6.03;;;17.10;99.90;;;;;;5045741;28;20196;-65
2023/09/09 02:28:26;;;;;;;8.65;6.22;;;17.70;99.90;;;;;;5048834;28;20317;-64
2023/09/09 02:30:52;;;;;;;8.43;6.53;;;17.60;99.90;;;;;;5049628;28;20644;-64
2023/09/09 02:33:21;;;;;;;14.35;6.20;;;17.70;99.90;;;;;;5036640;28;20211;-65
2023/09/09 02:35:47;;;;;;;11.07;6.97;;;17.80;99.90;;;;;;5059058;28;20200;-65
2023/09/09 02:38:14;;;;;;;10.40;6.55;;;17.70;99.90;;;;;;5026017;28;22649;-65
2023/09/09 02:40:41;;;;;;;8.75;7.25;;;17.70;99.90;;;;;;5056229;28;20200;-65
2023/09/09 02:43:08;;;;;;;10.23;7.47;;;;;;;;;;5038449;28;20224;-65
2023/09/09 02:45:35;;;;;;;10.20;7.03;;;17.60;99.90;;;;;;5048397;28;20320;-64
2023/09/09 02:48:02;;;;;;;9.75;6.68;;;17.70;99.90;;;;;;5029210;28;20210;-64
2023/09/09 02:50:30;;;;;;;8.85;6.68;;;17.70;99.90;;;;;;5049622;28;20200;-65
2023/09/09 02:52:57;;;;;;;9.38;6.90;;;17.70;99.90;;;;;;5057758;28;20588;-65
2023/09/09 02:55:23;;;;;;;8.25;6.55;;;17.70;99.90;;;;;;5029311;28;20212;-64
2023/09/09 02:57:50;;;;;;;7.38;6.45;;;17.80;99.90;;;;;;5049293;28;20210;-64
2023/09/09 03:00:17;;;;;;;9.43;7.30;;;17.60;99.90;;;;;;5047993;28;20257;-64
2023/09/09 03:02:44;;;;;;;10.10;7.47;;;17.60;99.90;;;;;;5044267;28;20232;-65
2023/09/09 03:05:11;;;;;;;9.07;6.68;;;17.60;99.90;;;;;;5055787;22;20314;-63
2023/09/09 03:07:40;;;;;;;10.75;7.15;;;17.70;99.90;;;;;;5020861;28;20269;-64
2023/09/09 03:10:07;;;;;;;8.48;6.90;;;17.60;99.90;;;;;;5022961;28;20527;-65
2023/09/09 03:12:34;;;;;;;10.82;7.18;;;17.60;99.90;;;;;;5058438;28;20246;-64
2023/09/09 03:15:05;;;;;;;9.23;7.00;;;17.50;99.90;;;;;;5039363;28;20228;-64
2023/09/09 03:17:32;;;;;;;8.13;7.22;;;17.50;99.90;;;;;;5053354;28;20231;-64
2023/09/09 03:19:59;;;;;;;9.23;6.85;;;17.50;99.90;;;;;;5039442;28;20743;-64
2023/09/09 03:22:25;;;;;;;11.93;6.88;;;17.40;99.90;;;;;;5042200;28;20224;-64
2023/09/09 03:24:54;;;;;;;9.27;6.72;;;17.30;99.90;;;;;;5018960;28;20236;-64
2023/09/09 03:27:21;;;;;;;8.25;7.30;;;17.30;99.90;;;;;;5056704;28;20563;-64
2023/09/09 03:29:48;;;;;;;9.75;7.03;;;17.30;99.90;;;;;;5047061;28;22655;-64
2023/09/09 03:32:14;;;;;;;14.27;7.03;;;17.20;99.90;;;;;;5049710;28;20231;-64
2023/09/09 03:34:41;;;;;;;8.48;7.05;;;17.20;99.90;;;;;;5036363;28;20732;-64
2023/09/09 03:37:08;;;;;;;7.80;6.82;;;17.10;99.90;;;;;;5050466;28;21008;-64
2023/09/09 03:39:35;;;;;;;8.25;6.80;;;17.10;99.90;;;;;;5013677;28;20221;-65
2023/09/09 03:42:03;;;;;;;9.45;7.32;;;17.00;99.90;;;;;;5046428;28;20805;-64
2023/09/09 03:44:30;;;;;;;9.60;7.55;;;17.10;99.90;;;;;;5051093;28;20314;-64
2023/09/09 03:46:57;;;;;;;11.00;7.18;;;17.10;99.90;;;;;;5044891;28;20204;-64
2023/09/09 03:49:23;;;;;;;9.38;7.40;;;17.10;99.90;;;;;;5052653;28;20204;-64
2023/09/09 03:51:50;;;;;;;9.27;7.05;;;17.00;99.90;;;;;;5040130;28;20234;-64
2023/09/09 03:54:17;;;;;;;9.70;7.57;;;17.00;99.90;;;;;;5052370;28;20228;-64
2023/09/09 03:56:44;;;;;;;8.80;7.38;;;17.00;99.90;;;;;;5019477;28;20331;-65
2023/09/09 03:59:12;;;;;;;8.77;7.68;;;16.90;99.90;;;;;;5060664;28;20196;-65
2023/09/09 04:01:39;;;;;;;12.45;7.55;;;17.00;99.90;;;;;;5033553;28;21199;-65
2023/09/09 04:04:06;;;;;;;13.15;7.72;;;17.00;99.90;;;;;;5050801;28;20338;-64
2023/09/09 04:06:33;;;;;;;9.07;7.80;;;17.00;99.90;;;;;;5047281;28;20224;-64
2023/09/09 04:09:00;;;;;;;9.10;7.25;;;17.00;99.90;;;;;;5048821;28;20204;-65
2023/09/09 04:11:27;;;;;;;9.70;7.03;;;16.90;99.90;;;;;;5020972;28;20203;-64
2023/09/09 04:13:54;;;;;;;8.63;7.72;;;16.90;99.90;;;;;;5054282;28;20211;-64
2023/09/09 04:16:22;;;;;;;8.70;7.72;;;16.80;99.90;;;;;;5042785;28;20860;-64
2023/09/09 04:18:48;;;;;;;8.60;7.18;;;16.80;99.90;;;;;;5056736;28;20361;-64
2023/09/09 04:21:15;;;;;;;10.35;7.43;;;16.80;99.90;;;;;;5050160;28;20200;-65
2023/09/09 04:23:42;;;;;;;8.30;7.50;;;16.80;99.90;;;;;;5059702;28;20224;-64
2023/09/09 04:26:09;;;;;;;11.77;7.32;;;16.70;99.90;;;;;;5018443;28;20528;-65
2023/09/09 04:28:36;;;;;;;9.55;7.50;;;16.80;99.90;;;;;;5064326;28;20213;-64
2023/09/09 04:31:03;;;;;;;12.23;7.88;;;16.70;99.90;;;;;;5056304;28;20666;-64
2023/09/09 04:33:31;;;;;;;9.05;7.38;;;16.80;99.90;;;;;;5046425;28;20696;-64
2023/09/09 04:35:57;;;;;;;8.15;6.80;;;16.70;99.90;;;;;;5051447;28;20207;-64
2023/09/09 04:38:24;;;;;;;9.43;7.82;;;16.70;99.90;;;;;;5060991;28;20201;-64
2023/09/09 04:40:51;;;;;;;10.60;8.05;;;16.70;99.90;;;;;;5063727;28;20203;-64
2023/09/09 04:43:20;;;;;;;12.80;7.70;;;16.70;99.90;;;;;;5016844;28;20496;-64
2023/09/09 04:45:47;;;;;;;9.57;7.25;;;16.70;99.90;;;;;;5058706;28;20196;-64
2023/09/09 04:48:14;;;;;;;8.63;7.07;;;16.70;99.90;;;;;;5052558;28;20210;-64
2023/09/09 04:50:42;;;;;;;8.70;7.10;;;16.70;99.90;;;;;;5051334;28;20682;-64
2023/09/09 04:53:09;;;;;;;9.35;7.93;;;16.70;99.90;;;;;;5054172;28;20201;-64
2023/09/09 04:55:35;;;;;;;9.48;7.53;;;16.80;99.90;;;;;;5056325;28;20685;-64
2023/09/09 04:58:02;;;;;;;10.25;7.32;;;16.80;99.90;;;;;;5023504;28;20200;-64
2023/09/09 05:00:29;;;;;;;9.93;7.70;;;16.70;99.90;;;;;;5058365;28;20228;-64
2023/09/09 05:02:56;;;;;;;10.30;7.30;;;16.80;99.90;;;;;;5052602;28;20228;-65
2023/09/09 05:05:23;;;;;;;10.48;7.90;;;16.70;99.90;;;;;;5043704;28;20288;-64
2023/09/09 05:07:51;;;;;;;9.85;7.47;;;16.90;99.90;;;;;;5038204;28;20207;-64
2023/09/09 05:10:19;;;;;;;10.25;7.43;;;16.90;99.90;;;;;;5056369;28;20208;-64
2023/09/09 05:12:46;;;;;;;9.52;7.03;;;16.90;99.90;;;;;;5020209;28;20201;-65
2023/09/09 05:15:13;;;;;;;9.52;7.45;;;17.00;99.90;;;;;;5051834;28;20193;-64
2023/09/09 05:17:40;;;;;;;10.45;7.70;;;17.00;99.90;;;;;;5042829;28;22777;-64
2023/09/09 05:20:08;;;;;;;7.63;6.80;;;16.90;99.90;;;;;;5049556;28;20204;-64
2023/09/09 05:22:34;;;;;;;14.45;6.88;;;16.90;99.90;;;;;;5031934;28;20432;-64
2023/09/09 05:25:03;;;;;;;10.85;6.82;;;16.80;99.90;;;;;;5058069;28;20192;-64
2023/09/09 05:27:29;;;;;;;7.00;6.25;;;16.80;99.90;;;;;;5049892;28;20988;-64
2023/09/09 05:29:56;;;;;;;6.93;5.63;;;16.80;99.90;;;;;;5010274;28;20224;-64
2023/09/09 05:32:23;;;;;;;7.05;6.20;;;17.00;99.90;;;;;;5052567;28;20201;-64
2023/09/09 05:34:50;;;;;;;10.55;6.95;;;16.80;99.90;;;;;;5053259;28;20211;-64
2023/09/09 05:37:17;;;;;;;8.45;7.03;;;16.90;99.90;;;;;;5028417;28;20228;-64
2023/09/09 05:39:44;;;;;;;8.73;6.07;;;16.90;99.90;;;;;;5034758;28;20424;-64
2023/09/09 05:42:12;;;;;;;16.00;6.95;;;16.90;99.90;;;;;;5039532;28;20219;-64
2023/09/09 05:44:39;;;;;;;9.80;6.78;;;16.90;99.90;;;;;;5015267;28;20319;-65
2023/09/09 05:47:06;;;;;;;10.52;6.13;;;16.90;99.90;;;;;;5057672;28;20657;-64
2023/09/09 05:49:33;;;;;;;7.35;6.00;;;17.00;99.90;;;;;;5047770;28;20200;-64
2023/09/09 05:52:00;;;;;;;9.52;7.05;;;16.90;99.90;;;;;;5029641;28;20200;-65
2023/09/09 05:54:27;;;;;;;10.65;6.95;;;17.00;99.90;;;;;;5037995;28;20200;-64
2023/09/09 05:56:54;;;;;;;7.95;7.15;;;17.00;99.90;;;;;;5057795;28;20208;-64
2023/09/09 05:59:22;;;;;;;16.50;6.57;;;17.00;99.90;;;;;;5027825;28;20351;-64
2023/09/09 06:01:49;;;;;;;10.40;6.80;;;17.10;99.90;;;;;;5058265;28;20195;-64
2023/09/09 06:04:16;;;;;;;7.80;6.82;;;17.10;99.90;;;;;;5058231;28;20732;-64
2023/09/09 06:06:44;;;;;;;7.95;6.88;;;17.20;99.90;;;;;;5044493;28;21372;-64
2023/09/09 06:09:11;;;;;;;9.05;7.22;;;17.20;99.90;;;;;;5045541;28;20199;-64
2023/09/09 06:11:38;;;;;;;7.97;6.63;;;17.30;99.90;;;;;;5058987;28;20581;-64
2023/09/09 06:14:05;;;;;;;16.15;7.43;;;17.40;99.90;;;;;;5022696;28;21024;-64
2023/09/09 06:16:33;;;;;;;9.88;7.43;;;17.50;99.90;;;;;;5058154;28;20200;-64
2023/09/09 06:19:00;;;;;;;11.25;7.10;;;17.50;99.90;;;;;;5061421;28;20366;-64
2023/09/09 06:21:27;;;;;;;15.00;6.72;;;17.60;99.90;;;;;;5050744;28;20203;-64
2023/09/09 06:23:54;;;;;;;9.77;6.95;;;17.70;99.90;;;;;;5046688;28;20227;-64
2023/09/09 06:26:21;;;;;;;10.40;7.65;;;17.70;99.90;;;;;;5054840;28;20204;-64
2023/09/09 06:28:48;;;;;;;13.25;7.55;;;17.80;99.90;;;;;;5049940;28;20203;-64
2023/09/09 06:31:15;;;;;;;12.23;7.18;;;17.90;99.90;;;;;;5010378;28;20223;-64
2023/09/09 06:33:43;;;;;;;9.57;7.07;;;17.90;99.90;;;;;;5057036;28;20200;-65
2023/09/09 06:36:10;;;;;;;10.07;7.30;;;18.00;99.90;;;;;;5037752;28;20200;-65
2023/09/09 06:38:37;;;;;;;9.38;6.93;;;18.10;99.90;;;;;;5053390;28;20531;-64
2023/09/09 06:41:03;;;;;;;14.82;7.38;;;18.10;99.90;;;;;;5039674;28;20206;-64
2023/09/09 06:43:30;;;;;;;12.55;7.60;;;18.20;99.90;;;;;;5058172;28;20227;-64
2023/09/09 06:45:59;;;;;;;9.35;6.60;;;18.30;99.90;;;;;;5021422;28;20796;-64
2023/09/09 06:48:26;;;;;;;11.07;7.30;;;18.40;99.90;;;;;;5053198;28;20432;-64
2023/09/09 06:50:54;;;;;;;7.90;7.10;;;18.50;99.90;;;;;;5049469;28;20709;-64
2023/09/09 06:53:21;;;;;;;11.27;6.80;;;18.50;99.90;;;;;;5046583;28;20223;-65
2023/09/09 06:55:49;;;;;;;10.57;6.72;;;18.60;99.90;;;;;;5044878;28;20204;-65
2023/09/09 06:58:15;;;;;;;8.43;6.68;;;18.60;99.90;;;;;;5048048;28;20204;-64
2023/09/09 07:00:43;;;;;;;10.13;6.78;;;18.60;99.90;;;;;;5013543;28;20215;-64
2023/09/09 07:03:10;;;;;;;8.52;6.82;;;18.70;99.90;;;;;;5039662;28;20234;-65
2023/09/09 07:05:37;;;;;;;8.80;6.63;;;18.80;99.90;;;;;;5052323;28;20705;-64
2023/09/09 07:08:05;;;;;;;8.68;7.07;;;18.80;99.90;;;;;;5036212;28;20201;-64
2023/09/09 07:10:32;;;;;;;10.40;7.10;;;19.10;99.90;;;;;;5038514;28;20923;-64
2023/09/09 07:12:59;;;;;;;11.82;7.25;;;19.00;99.90;;;;;;5056888;28;20216;-65
2023/09/09 07:15:26;;;;;;;9.95;7.05;;;19.00;99.90;;;;;;5028345;28;20665;-65
2023/09/09 07:17:55;;;;;;;8.38;7.25;;;19.00;99.90;;;;;;5052721;28;20565;-65
2023/09/09 07:20:22;;;;;;;8.10;7.30;;;19.10;99.90;;;;;;5058102;28;20553;-65
2023/09/09 07:22:49;;;;;;;16.45;8.00;;;19.10;99.90;;;;;;5046891;28;20576;-65
2023/09/09 07:25:17;;;;;;;8.80;7.72;;;19.20;99.90;;;;;;5039116;28;20207;-64
2023/09/09 07:27:44;;;;;;;13.02;7.38;;;19.20;99.90;;;;;;5050290;28;20966;-65
2023/09/09 07:30:11;;;;;;;10.20;8.20;;;19.20;99.90;;;;;;5052113;28;20826;-65
2023/09/09 07:32:38;;;;;;;8.55;7.60;;;19.30;99.90;;;;;;5013875;28;20209;-64
2023/09/09 07:35:06;;;;;;;13.95;8.10;;;19.30;99.90;;;;;;5054058;28;20222;-64
2023/09/09 07:37:33;;;;;;;16.77;10.15;;;19.40;99.90;;;;;;5031042;28;20369;-64
2023/09/09 07:39:59;;;;;;;11.80;9.05;;;19.40;99.90;;;;;;5042732;28;20700;-64
2023/09/09 07:42:28;;;;;;;10.60;9.23;;;19.50;99.90;;;;;;5048761;28;20445;-64
2023/09/09 07:44:54;;;;;;;13.32;9.73;;;19.60;99.90;;;;;;5053379;28;20718;-64
2023/09/09 07:47:22;;;;;;;12.55;10.40;;;19.60;99.90;;;;;;5024352;28;20239;-64
2023/09/09 07:49:50;;;;;;;11.63;9.60;;;19.70;99.90;;;;;;5058743;28;20301;-64
2023/09/09 07:52:16;;;;;;;16.63;9.95;;;19.80;99.90;;;;;;5035968;28;20251;-64
2023/09/09 07:54:43;;;;;;;12.25;9.20;;;19.80;99.90;;;;;;5037307;28;20193;-64
2023/09/09 07:57:10;;;;;;;16.13;9.93;;;19.80;99.90;;;;;;5050016;28;20402;-64
2023/09/09 07:59:39;;;;;;;15.52;9.75;;;19.90;99.90;;;;;;5060014;28;20199;-65
2023/09/09 08:02:07;;;;;;;15.20;9.40;;;20.00;99.90;;;;;;5033779;28;20197;-64
2023/09/09 08:04:34;;;;;;;13.93;11.00;;;20.00;99.90;;;;;;5017966;28;20234;-64
2023/09/09 08:07:00;;;;;;;17.42;13.02;;;20.00;99.90;;;;;;5053155;28;20235;-64
2023/09/09 08:09:27;;;;;;;18.80;13.40;;;20.10;99.90;;;;;;5030462;28;20441;-64
2023/09/09 08:11:54;;;;;;;16.58;12.77;;;20.20;99.90;;;;;;5046280;28;20201;-64
2023/09/09 08:14:21;;;;;;;18.55;13.52;;;20.30;99.90;;;;;;5055857;28;20203;-65
2023/09/09 08:16:49;;;;;;;18.05;13.73;;;20.30;99.90;;;;;;5044665;28;20196;-65
2023/09/09 08:19:16;;;;;;;17.42;14.43;;;20.40;99.90;;;;;;5019114;28;20207;-64
2023/09/09 08:21:44;;;;;;;22.70;14.00;;;20.50;99.90;;;;;;5051558;28;20196;-64
2023/09/09 08:24:10;;;;;;;17.65;14.25;;;20.50;99.90;;;;;;5044255;28;20228;-65
2023/09/09 08:26:37;;;;;;;18.75;14.18;;;20.50;99.90;;;;;;5044772;28;20223;-64
2023/09/09 08:29:04;;;;;;;17.85;13.27;;;20.60;99.90;;;;;;5055382;28;20197;-64
2023/09/09 08:31:31;;;;;;;17.83;13.15;;;20.50;99.90;;;;;;5034098;28;23110;-64
2023/09/09 08:33:59;;;;;;;17.33;13.45;;;20.60;99.90;;;;;;5011541;28;20232;-64
2023/09/09 08:36:27;;;;;;;22.63;15.77;;;20.70;99.90;;;;;;5038924;28;20227;-65
2023/09/09 08:38:56;;;;;;;16.33;13.68;;;20.60;99.90;;;;;;5039854;28;20231;-66
2023/09/09 08:41:33;;;;;;;17.42;15.25;;;20.80;99.90;;;;;;5050631;28;20203;-64
2023/09/09 08:44:04;;;;;;;22.98;17.50;;;20.80;99.90;;;;;;5055922;28;23187;-64
2023/09/09 08:46:31;;;;;;;22.10;15.82;;;20.80;99.90;;;;;;5049320;28;20196;-64
2023/09/09 08:49:02;;;;;;;16.77;13.65;;;20.90;99.90;;;;;;5017065;28;20238;-64
2023/09/09 08:51:32;;;;;;;19.05;13.55;;;20.90;99.90;;;;;;5060102;28;20337;-64
2023/09/09 08:54:00;;;;;;;17.98;13.93;;;21.00;99.90;;;;;;5057321;28;20869;-64
2023/09/09 08:56:28;;;;;;;20.48;13.27;;;21.10;99.90;;;;;;5042461;28;20204;-64
2023/09/09 08:58:54;;;;;;;16.52;12.50;;;21.10;99.90;;;;;;5045215;28;20207;-64
2023/09/09 09:01:23;;;;;;;13.60;11.50;;;21.20;99.90;;;;;;5061656;28;20200;-64
2023/09/09 09:03:51;;;;;;;11.65;10.45;;;21.40;99.90;;;;;;5010284;28;22057;-64
2023/09/09 09:06:19;;;;;;;12.75;10.98;;;21.40;99.90;;;;;;5057352;28;20439;-64
2023/09/09 09:08:46;;;;;;;13.43;10.60;;;21.40;99.90;;;;;;5054371;28;20197;-64
2023/09/09 09:11:14;;;;;;;13.55;11.60;;;21.50;99.90;;;;;;5049329;28;20196;-64
2023/09/09 09:13:40;;;;;;;19.23;15.77;;;21.60;99.90;;;;;;5049034;28;20200;-64
2023/09/09 09:16:08;;;;;;;16.95;12.07;;;21.60;99.90;;;;;;5063385;28;20197;-64
2023/09/09 09:18:36;;;;;;;12.60;11.30;;;21.80;99.90;;;;;;5048777;28;20207;-64
2023/09/09 09:21:07;;;;;;;13.10;10.35;;;21.80;99.90;;;;;;5026352;28;20208;-64
2023/09/09 09:23:41;;;;;;;10.95;9.85;;;21.90;99.90;;;;;;5057674;28;20201;-64
2023/09/09 09:26:23;;;;;;;13.68;9.88;;;21.90;99.90;;;;;;5050960;28;20677;-64
2023/09/09 09:28:51;;;;;;;10.95;9.55;;;22.00;99.90;;;;;;5052684;28;20199;-64
2023/09/09 09:31:20;;;;;;;11.40;10.27;;;22.00;99.90;;;;;;5064180;28;20200;-64
2023/09/09 09:33:48;;;;;;;11.40;9.75;;;22.20;99.90;;;;;;5046135;28;22173;-64
2023/09/09 09:36:17;;;;;;;14.38;10.65;;;22.20;99.90;;;;;;5028719;28;20208;-64
2023/09/09 09:38:45;;;;;;;12.90;10.35;;;22.20;99.90;;;;;;5053675;28;21048;-64
2023/09/09 09:41:12;;;;;;;16.30;10.50;;;22.30;99.90;;;;;;5059906;28;20197;-64
2023/09/09 09:43:39;;;;;;;12.88;9.52;;;22.50;99.90;;;;;;5036215;28;20220;-64
2023/09/09 09:46:16;;;;;;;13.18;9.98;;;22.60;99.90;;;;;;5055421;28;20550;-64
2023/09/09 09:48:43;;;;;;;10.35;9.13;;;22.70;99.90;;;;;;5046350;28;20196;-64
2023/09/09 09:51:09;;;;;;;14.63;8.70;;;22.80;99.90;;;;;;5023730;28;20353;-64
2023/09/09 09:53:39;;;;;;;11.95;9.20;;;22.90;99.90;;;;;;5047874;28;20231;-64
2023/09/09 09:56:07;;;;;;;12.13;8.35;;;22.90;99.90;;;;;;5056968;28;20420;-64
2023/09/09 09:58:37;;;;;;;13.18;9.00;;;23.00;99.90;;;;;;5027813;28;20596;-64
2023/09/09 10:01:06;;;;;;;8.10;7.30;;;23.10;99.90;;;;;;5027703;28;21060;-64
2023/09/09 10:03:42;;;;;;;10.05;8.80;;;23.20;99.90;;;;;;5055947;28;20211;-64
2023/09/09 10:06:12;;;;;;;11.35;9.20;;;23.20;99.90;;;;;;5007534;28;20231;-64
2023/09/09 10:08:46;;;;;;;8.15;7.35;;;23.40;99.90;;;;;;5050245;28;20764;-64
2023/09/09 10:11:18;;;;;;;9.65;8.23;;;23.60;99.90;;;;;;5052509;28;20221;-64
2023/09/09 10:13:53;;;;;;;13.55;8.05;;;23.60;99.90;;;;;;5023507;28;20219;-64
2023/09/09 10:16:22;;;;;;;9.10;8.05;;;23.60;99.90;;;;;;5050055;28;20219;-64
2023/09/09 10:18:52;;;;;;;13.07;8.05;;;23.70;99.90;;;;;;5052877;28;20856;-64
2023/09/09 10:21:20;;;;;;;9.10;7.63;;;23.70;99.90;;;;;;5008476;28;20220;-64
2023/09/09 10:23:47;;;;;;;16.13;7.95;;;23.70;99.90;;;;;;5056519;28;21081;-64
2023/09/09 10:26:18;;;;;;;11.98;8.02;;;23.80;99.90;;;;;;5051435;28;20208;-64
2023/09/09 10:28:47;;;;;;;9.52;7.80;;;23.80;99.90;;;;;;5042479;28;20201;-64
2023/09/09 10:31:15;;;;;;;14.68;7.85;;;23.90;99.90;;;;;;5047705;28;20201;-64
2023/09/09 10:33:45;;;;;;;8.70;7.00;;;24.00;99.90;;;;;;5056618;28;20200;-65
2023/09/09 10:36:14;;;;;;;9.77;6.57;;;23.90;99.90;;;;;;4990098;28;20911;-64
2023/09/09 10:38:41;;;;;;;8.38;6.40;;;23.90;99.90;;;;;;5051836;28;20228;-64
2023/09/09 10:41:09;;;;;;;8.52;7.30;;;23.90;99.90;;;;;;5043915;28;20565;-64
2023/09/09 10:43:37;;;;;;;8.35;6.18;;;24.00;99.90;;;;;;5050747;28;20263;-64
2023/09/09 10:46:04;;;;;;;9.90;6.00;;;24.00;99.90;;;;;;5040133;28;20514;-64
2023/09/09 10:48:31;;;;;;;8.63;6.18;;;24.00;99.90;;;;;;5055589;28;20196;-64
2023/09/09 10:50:58;;;;;;;7.85;6.20;;;24.20;99.90;;;;;;5040641;28;20689;-64
2023/09/09 10:53:27;;;;;;;7.13;6.43;;;24.20;99.90;;;;;;5016702;28;20818;-64
2023/09/09 10:55:55;;;;;;;9.73;5.75;;;24.20;99.90;;;;;;5048844;28;20209;-64
2023/09/09 10:58:32;;;;;;;9.02;6.22;;;24.20;99.90;;;;;;5061929;28;20196;-64
2023/09/09 11:01:00;;;;;;;6.75;5.22;;;24.20;99.90;;;;;;5041375;28;20742;-64
2023/09/09 11:03:35;;;;;;;9.25;6.45;;;24.20;99.90;;;;;;5054923;28;20220;-65
2023/09/09 11:06:05;;;;;;;8.40;5.78;;;24.40;99.90;;;;;;5036299;28;20249;-65
2023/09/09 11:08:36;;;;;;;8.77;5.63;;;24.40;99.90;;;;;;5017136;28;20547;-65
2023/09/09 11:11:12;;;;;;;6.10;5.55;;;24.50;99.90;;;;;;5059518;28;20645;-65
2023/09/09 11:13:53;;;;;;;6.05;5.45;;;24.60;99.90;;;;;;5051998;28;20510;-65
2023/09/09 11:16:33;;;;;;;9.70;6.18;;;24.60;99.90;;;;;;5040202;28;20204;-65
2023/09/09 11:19:02;;;;;;;8.93;6.40;;;24.70;99.90;;;;;;5042586;28;20790;-65
2023/09/09 11:21:32;;;;;;;6.28;5.28;;;24.60;99.90;;;;;;5039783;28;20220;-65
2023/09/09 11:23:59;;;;;;;11.93;6.57;;;24.60;99.90;;;;;;4999690;28;20685;-65
2023/09/09 11:26:28;;;;;;;7.53;6.28;;;24.80;99.90;;;;;;5051568;28;20223;-64
2023/09/09 11:28:55;;;;;;;6.28;5.47;;;24.90;99.90;;;;;;5047761;28;20228;-65
2023/09/09 11:31:23;;;;;;;8.38;5.55;;;24.90;99.90;;;;;;5043950;28;20227;-64
2023/09/09 11:33:55;;;;;;;9.13;5.78;;;24.80;99.90;;;;;;5048449;28;20221;-64
2023/09/09 11:36:22;;;;;;;6.88;6.18;;;;;;;;;;5055437;28;20220;-63
2023/09/09 11:38:49;;;;;;;5.68;5.18;;;24.90;99.90;;;;;;5011367;28;20742;-64
2023/09/09 11:41:20;;;;;;;7.97;4.93;;;24.90;99.90;;;;;;5056608;28;20225;-63
2023/09/09 11:43:57;;;;;;;5.30;4.70;;;24.80;99.90;;;;;;5039706;28;20237;-64
2023/09/09 11:46:25;;;;;;;6.03;4.80;;;25.00;99.90;;;;;;5043250;28;20229;-63
2023/09/09 11:48:53;;;;;;;6.82;5.78;;;25.00;99.90;;;;;;5040617;28;20278;-63
2023/09/09 11:51:21;;;;;;;5.97;5.35;;;25.00;99.90;;;;;;5043019;28;20250;-64
2023/09/09 11:53:48;;;;;;;6.93;5.80;;;25.10;99.90;;;;;;5059369;28;20207;-64
2023/09/09 11:56:15;;;;;;;7.50;5.85;;;25.10;99.90;;;;;;5016987;28;20255;-64
2023/09/09 11:58:42;;;;;;;7.22;5.90;;;25.30;99.90;;;;;;5040189;28;20231;-63
2023/09/09 12:01:10;;;;;;;6.80;5.78;;;25.30;99.90;;;;;;5056494;28;20438;-64
2023/09/09 12:03:37;;;;;;;9.65;5.78;;;25.50;99.90;;;;;;5048418;28;20224;-63
2023/09/09 12:06:08;;;;;;;13.43;6.43;;;25.40;99.90;;;;;;5051733;28;20262;-64
2023/09/09 12:08:37;;;;;;;12.13;5.88;;;25.40;99.90;;;;;;5024313;28;20221;-63
2023/09/09 12:11:07;;;;;;;7.50;5.95;;;25.50;99.90;;;;;;4998414;22;21169;-64
2023/09/09 12:13:34;;;;;;;7.47;5.47;;;25.50;99.90;;;;;;4992804;28;20210;-63
2023/09/09 12:16:02;;;;;;;6.47;5.78;;;25.50;99.90;;;;;;5010726;28;20235;-64
2023/09/09 12:18:29;;;;;;;6.13;5.53;;;25.50;99.90;;;;;;5021622;28;20221;-64
2023/09/09 12:21:03;;;;;;;7.60;5.68;;;25.50;99.90;;;;;;5010421;28;20788;-64
2023/09/09 12:23:33;;;;;;;8.70;6.47;;;25.50;99.90;;;;;;5025453;28;20290;-64
2023/09/09 12:26:13;;;;;;;11.30;5.95;;;25.40;99.90;;;;;;5017555;28;21008;-63
2023/09/09 12:28:40;;;;;;;8.82;6.70;;;25.50;99.90;;;;;;4967758;28;20213;-64
2023/09/09 12:31:08;;;;;;;8.18;6.88;;;25.50;99.90;;;;;;5018519;28;20211;-64
2023/09/09 12:33:40;;;;;;;10.00;7.10;;;25.50;99.90;;;;;;5022810;28;20208;-64
2023/09/09 12:36:15;;;;;;;8.52;6.00;;;25.60;99.90;;;;;;5013687;28;20205;-64
2023/09/09 12:38:46;;;;;;;16.02;6.50;;;25.70;99.90;;;;;;5014286;28;20220;-64
2023/09/09 12:41:17;;;;;;;7.70;6.13;;;25.80;99.90;;;;;;5021573;28;20280;-64
2023/09/09 12:43:44;;;;;;;8.10;6.00;;;26.00;99.90;;;;;;4971111;28;20225;-65
2023/09/09 12:46:13;;;;;;;6.97;5.40;;;26.00;99.90;;;;;;5022329;28;20221;-65